Time;durP1;ratioP1;P1;durP2;ratioP2;P2;SDS_P1;SDS_P2;PMS_P1;PMS_P2;Temp;Humidity;BMP_temperature;BMP_pressure;BME280_temperature;BME280_humidity;BME280_pressure;Samples;Min_cycle;Max_cycle;Signal;HPM_P1;HPM_P2
2022/06/11 00:00:12;;;;;;;;;;;;;;;15.87;59.43;97506.44;30001;987;1868;-55
2022/06/11 00:00:44;;;;;;;;;;;;;;;15.86;59.10;97507.53;30001;983;1876;-55
2022/06/11 00:01:27;;;;;;;;;;;;;;;15.85;59.36;97503.19;30001;983;1876;-55
2022/06/11 00:02:01;;;;;;;;;;;;;;;15.85;59.14;97503.19;30001;983;1876;-55
2022/06/11 00:02:32;;;;;;;;;;;;;;;15.84;59.16;97506.25;30001;983;1864;-54
2022/06/11 00:03:03;;;;;;;;;;;;;;;15.83;59.27;97499.97;30001;983;1868;-56
2022/06/11 00:03:37;;;;;;;;;;;;;;;15.82;59.33;97503.81;30001;983;1877;-54
2022/06/11 00:04:09;;;;;;;;;;;;;;;15.81;59.31;97504.94;30001;982;1877;-54
2022/06/11 00:04:41;;;;;;;;;;;;;;;15.80;59.47;97506.06;30001;982;1877;-54
2022/06/11 00:05:13;;;;;;;;;;;;;;;15.80;59.40;97505.25;30001;982;1877;-55
2022/06/11 00:05:45;;;;;;;;;;;;;;;15.79;59.52;97509.91;30001;982;1877;-55
2022/06/11 00:06:16;;;;;;;;;;;;;;;15.80;59.43;97513.44;30001;982;1877;-55
2022/06/11 00:06:49;;;;;;;;;;;;;;;15.78;59.81;97510.22;30001;983;1876;-54
2022/06/11 00:07:22;;;;;;;;;;;;;;;15.78;59.49;97508.28;30001;983;1876;-55
2022/06/11 00:07:53;;;;;;;;;;;;;;;15.78;59.43;97508.28;30001;983;1863;-55
2022/06/11 00:08:25;;;;;;;;;;;;;;;15.78;59.42;97502.81;30001;983;1868;-55
2022/06/11 00:08:56;;;;;;;;;;;;;;;15.78;59.63;97508.28;30001;983;1877;-54
2022/06/11 00:09:28;;;;;;;;;;;;;;;15.77;59.41;97506.66;30001;983;1877;-55
2022/06/11 00:09:59;;;;;;;;;;;;;;;15.77;59.27;97503.94;30001;983;1877;-54
2022/06/11 00:10:30;;;;;;;;;;;;;;;15.76;59.43;97505.06;30001;983;1877;-55
2022/06/11 00:11:05;;;;;;;;;;;;;;;15.76;59.38;97507.78;30001;983;1877;-55
2022/06/11 00:11:36;;;;;;;;;;;;;;;15.77;59.37;97506.66;30001;982;1877;-55
2022/06/11 00:12:08;;;;;;;;;;;;;;;15.78;59.41;97505.56;30001;982;1877;-54
2022/06/11 00:12:39;;;;;;;;;;;;;;;15.76;59.08;97499.59;30001;982;1877;-54
2022/06/11 00:13:10;;;;;;;;;;;;;;;15.77;59.41;97500.37;30001;982;1864;-55
2022/06/11 00:13:42;;;;;;;;;;;;;;;15.75;59.28;97503.44;30001;964;1887;-61
2022/06/11 00:14:14;;;;;;;;;;;;;;;15.76;59.55;97505.06;30001;983;1876;-55
2022/06/11 00:14:46;;;;;;;;;;;;;;;15.76;59.43;97499.59;30001;983;1876;-55
2022/06/11 00:15:17;;;;;;;;;;;;;;;15.77;59.40;97501.19;30001;983;1876;-54
2022/06/11 00:15:50;;;;;;;;;;;;;;;15.77;59.06;97506.66;30001;983;1877;-54
2022/06/11 00:16:22;;;;;;;;;;;;;;;15.77;59.17;97503.13;30001;983;1863;-54
2022/06/11 00:16:54;;;;;;;;;;;;;;;15.76;59.05;97505.06;30001;983;1868;-56
2022/06/11 00:17:25;;;;;;;;;;;;;;;15.76;59.36;97502.31;30001;976;1883;-54
2022/06/11 00:17:57;;;;;;;;;;;;;;;15.75;59.11;97504.25;30001;983;1863;-55
2022/06/11 00:18:30;;;;;;;;;;;;;;;15.76;59.42;97507.78;30001;983;1868;-55
2022/06/11 00:19:01;;;;;;;;;;;;;;;15.74;59.16;97497.16;30001;983;1877;-54
2022/06/11 00:19:35;;;;;;;;;;;;;;;15.75;59.45;97506.19;30001;982;1877;-54
2022/06/11 00:20:07;;;;;;;;;;;;;;;15.75;59.19;97508.91;30001;982;1877;-56
2022/06/11 00:20:39;;;;;;;;;;;;;;;15.76;59.14;97505.06;30001;982;1877;-56
2022/06/11 00:21:11;;;;;;;;;;;;;;;15.77;59.14;97505.88;30001;982;1864;-55
2022/06/11 00:21:44;;;;;;;;;;;;;;;15.77;59.04;97501.19;30001;986;1868;-54
2022/06/11 00:22:17;;;;;;;;;;;;;;;15.77;58.88;97505.88;30001;983;1876;-54
2022/06/11 00:22:48;;;;;;;;;;;;;;;15.78;59.05;97502.00;30001;983;1877;-56
2022/06/11 00:23:22;;;;;;;;;;;;;;;15.78;58.81;97500.09;30001;983;1876;-55
2022/06/11 00:23:53;;;;;;;;;;;;;;;15.78;59.10;97502.00;30001;983;1877;-56
2022/06/11 00:24:24;;;;;;;;;;;;;;;15.77;58.98;97501.19;30001;983;1877;-55
2022/06/11 00:24:55;;;;;;;;;;;;;;;15.77;59.34;97509.41;30001;983;1877;-53
2022/06/11 00:25:32;;;;;;;;;;;;;;;15.75;59.17;97504.25;30001;983;1877;-54
2022/06/11 00:26:04;;;;;;;;;;;;;;;15.76;59.08;97510.53;30001;983;1864;-61
2022/06/11 00:26:37;;;;;;;;;;;;;;;15.77;59.14;97503.94;30001;983;1868;-56
2022/06/11 00:27:10;;;;;;;;;;;;;;;15.75;59.43;97504.25;30001;982;1877;-53
2022/06/11 00:27:41;;;;;;;;;;;;;;;15.75;59.16;97508.91;30001;982;1877;-53
2022/06/11 00:28:13;;;;;;;;;;;;;;;15.74;59.49;97507.28;30001;982;1877;-54
2022/06/11 00:28:47;;;;;;;;;;;;;;;15.74;59.63;97508.09;30001;982;1864;-53
2022/06/11 00:29:19;;;;;;;;;;;;;;;15.75;59.70;97500.69;30001;983;1867;-54
2022/06/11 00:29:50;;;;;;;;;;;;;;;15.74;59.32;97507.28;30001;983;1876;-55
2022/06/11 00:30:20;;;;;;;;;;;;;;;15.73;59.68;97502.94;30001;983;1876;-56
2022/06/11 00:30:51;;;;;;;;;;;;;;;15.71;59.49;97502.44;30001;983;1877;-54
2022/06/11 00:31:23;;;;;;;;;;;;;;;15.71;59.29;97505.19;30001;983;1863;-54
2022/06/11 00:31:54;;;;;;;;;;;;;;;15.71;59.67;97510.66;30001;983;1868;-54
2022/06/11 00:32:26;;;;;;;;;;;;;;;15.72;59.78;97501.31;30001;983;1877;-54
2022/06/11 00:32:57;;;;;;;;;;;;;;;15.71;59.40;97505.19;30001;983;1877;-62
2022/06/11 00:33:31;;;;;;;;;;;;;;;15.70;59.46;97506.28;30001;982;1877;-63
2022/06/11 00:34:02;;;;;;;;;;;;;;;15.70;59.49;97509.03;30001;982;1877;-64
2022/06/11 00:34:34;;;;;;;;;;;;;;;15.69;59.49;97505.50;30001;982;1864;-63
2022/06/11 00:35:05;;;;;;;;;;;;;;;15.69;60.01;97508.22;30001;982;1868;-62
2022/06/11 00:35:37;;;;;;;;;;;;;;;15.70;60.02;97504.38;30001;982;1877;-64
2022/06/11 00:36:09;;;;;;;;;;;;;;;15.70;59.71;97509.03;30001;982;1877;-61
2022/06/11 00:36:40;;;;;;;;;;;;;;;15.71;60.11;97502.44;30001;982;1877;-64
2022/06/11 00:37:13;;;;;;;;;;;;;;;15.70;59.89;97507.09;30001;983;1863;-64
2022/06/11 00:37:44;;;;;;;;;;;;;;;15.69;59.99;97501.94;30001;983;1868;-63
2022/06/11 00:38:16;;;;;;;;;;;;;;;15.68;59.71;97503.88;30001;983;1876;-63
2022/06/11 00:38:48;;;;;;;;;;;;;;;15.67;60.04;97507.72;30002;983;1877;-60
2022/06/11 00:39:21;;;;;;;;;;;;;;;15.67;60.13;97512.38;30002;983;1877;-62
2022/06/11 00:39:52;;;;;;;;;;;;;;;15.66;59.88;97502.56;30001;983;1863;-63
2022/06/11 00:40:25;;;;;;;;;;;;;;;15.65;60.08;97499.00;30002;983;1868;-63
2022/06/11 00:40:55;;;;;;;;;;;;;;;15.65;60.35;97509.16;30002;983;1877;-63
2022/06/11 00:41:28;;;;;;;;;;;;;;;15.63;60.04;97503.19;30002;982;1877;-62
2022/06/11 00:42:02;;;;;;;;;;;;;;;15.63;60.49;97505.91;30001;982;1877;-63
2022/06/11 00:42:34;;;;;;;;;;;;;;;15.62;60.34;97499.63;30002;982;1877;-62
2022/06/11 00:43:06;;;;;;;;;;;;;;;15.62;60.57;97501.56;30002;982;1877;-62
2022/06/11 00:43:39;;;;;;;;;;;;;;;15.62;60.30;97499.63;30002;982;1864;-62
2022/06/11 00:44:10;;;;;;;;;;;;;;;15.61;60.47;97508.16;30002;982;1869;-53
2022/06/11 00:44:42;;;;;;;;;;;;;;;15.61;60.27;97508.16;30002;983;1876;-62
2022/06/11 00:45:27;;;;;;;;;;;;;;;15.59;60.76;97504.94;30002;983;1876;-64
2022/06/11 00:46:01;;;;;;;;;;;;;;;15.59;60.55;97504.94;30002;983;1877;-64
2022/06/11 00:46:50;;;;;;;;;;;;;;;15.58;61.07;97506.06;30002;983;1877;-62
2022/06/11 00:47:22;;;;;;;;;;;;;;;15.58;61.03;97514.28;30002;983;1868;-54
2022/06/11 00:48:03;;;;;;;;;;;;;;;15.59;61.12;97510.41;30002;983;1863;-61
2022/06/11 00:48:36;;;;;;;;;;;;;;;15.58;60.80;97506.06;30002;982;1868;-64
2022/06/11 00:49:30;;;;;;;;;;;;;;;15.57;61.19;97504.44;30002;982;1877;-62
2022/06/11 00:50:03;;;;;;;;;;;;;;;15.61;61.11;97510.88;30002;982;1873;-64
2022/06/11 00:50:51;;;;;;;;;;;;;;;15.59;61.22;97505.75;30002;982;1877;-63
2022/06/11 00:51:23;;;;;;;;;;;;;;;15.59;61.31;97504.94;30002;982;1878;-61
2022/06/11 00:52:20;;;;;;;;;;;;;;;15.57;61.34;97508.00;30002;983;1863;-54
2022/06/11 00:52:52;;;;;;;;;;;;;;;15.58;61.23;97511.53;30002;983;1864;-62
2022/06/11 00:53:37;;;;;;;;;;;;;;;15.56;61.24;97506.38;30002;983;1877;-62
2022/06/11 00:54:13;;;;;;;;;;;;;;;15.58;61.45;97500.59;30002;983;1877;-64
2022/06/11 00:54:47;;;;;;;;;;;;;;;15.56;61.24;97506.38;30002;983;1862;-62
2022/06/11 00:55:30;;;;;;;;;;;;;;;15.56;61.29;97505.53;30002;983;1877;-62
2022/06/11 00:56:03;;;;;;;;;;;;;;;15.53;61.38;97497.94;30002;983;1864;-62
2022/06/11 00:56:46;;;;;;;;;;;;;;;15.52;61.47;97504.53;30002;982;1868;-64
2022/06/11 00:57:17;;;;;;;;;;;;;;;15.54;61.83;97502.28;30002;982;1877;-61
2022/06/11 00:57:50;;;;;;;;;;;;;;;15.52;61.57;97499.06;30002;982;1877;-62
2022/06/11 00:58:23;;;;;;;;;;;;;;;15.53;61.50;97503.41;30002;982;1864;-61
2022/06/11 00:58:58;;;;;;;;;;;;;;;15.52;61.92;97499.06;30002;982;1855;-61
2022/06/11 00:59:33;;;;;;;;;;;;;;;15.50;61.81;97502.09;30002;983;1876;-63
2022/06/11 01:00:12;;;;;;;;;;;;;;;15.49;61.49;97505.16;30002;983;1876;-61
2022/06/11 01:00:45;;;;;;;;;;;;;;;15.49;61.78;97499.69;30002;983;1876;-63
2022/06/11 01:01:18;;;;;;;;;;;;;;;15.48;61.68;97498.88;30002;983;1876;-61
2022/06/11 01:01:49;;;;;;;;;;;;;;;15.49;61.68;97496.94;30002;983;1877;-62
2022/06/11 01:02:22;;;;;;;;;;;;;;;15.47;61.54;97496.44;30002;983;1863;-62
2022/06/11 01:02:53;;;;;;;;;;;;;;;15.46;61.90;97497.56;30002;983;1868;-62
2022/06/11 01:03:28;;;;;;;;;;;;;;;15.44;61.83;97497.88;30002;983;1877;-62
2022/06/11 01:04:01;;;;;;;;;;;;;;;15.43;61.94;97499.78;30002;986;1872;-63
2022/06/11 01:04:41;;;;;;;;;;;;;;;15.47;61.74;97496.44;30002;982;1877;-61
2022/06/11 01:05:17;;;;;;;;;;;;;;;15.49;61.65;97488.72;30002;982;1877;-62
2022/06/11 01:05:50;;;;;;;;;;;;;;;15.47;61.44;97496.44;30002;982;1877;-60
2022/06/11 01:06:33;;;;;;;;;;;;;;;15.47;61.43;97490.97;30002;983;1863;-62
2022/06/11 01:07:21;;;;;;;;;;;;;;;15.46;61.65;97492.91;30002;983;1868;-63
2022/06/11 01:08:12;;;;;;;;;;;;;;;15.47;61.63;97496.44;30002;983;1868;-64
2022/06/11 01:09:03;;;;;;;;;;;;;;;15.46;61.53;97492.09;30002;986;1872;-63
2022/06/11 01:09:48;;;;;;;;;;;;;;;15.48;61.74;97493.41;30002;983;1872;-62
2022/06/11 01:10:37;;;;;;;;;;;;;;;15.47;61.66;97496.44;30002;983;1877;-62
2022/06/11 01:11:36;;;;;;;;;;;;;;;15.46;61.96;97497.56;30002;982;1855;-62
2022/06/11 01:12:40;;;;;;;;;;;;;;;15.42;61.60;97498.19;30002;982;1864;-54
2022/06/11 01:13:34;;;;;;;;;;;;;;;15.39;61.95;97489.78;30002;965;1798;-62
2022/06/11 01:14:16;;;;;;;;;;;;;;;15.36;62.13;97485.72;30002;983;1863;-61
2022/06/11 01:14:57;;;;;;;;;;;;;;;15.35;62.23;97495.06;30002;983;1876;-62
2022/06/11 01:15:36;;;;;;;;;;;;;;;15.31;61.91;97488.56;30002;983;1876;-60
2022/06/11 01:16:14;;;;;;;;;;;;;;;15.29;62.09;97490.81;30002;983;1877;-62
2022/06/11 01:17:03;;;;;;;;;;;;;;;15.27;62.38;97487.56;30002;983;1876;-63
2022/06/11 01:17:46;;;;;;;;;;;;;;;15.27;62.55;97490.31;30002;983;1868;-55
2022/06/11 01:18:43;;;;;;;;;;;;;;;15.27;62.18;97492.22;30002;983;1864;-62
2022/06/11 01:19:32;;;;;;;;;;;;;;;15.26;62.47;97494.16;30002;982;1850;-64
2022/06/11 01:20:22;;;;;;;;;;;;;;;15.24;62.31;97484.69;30002;982;1868;-61
2022/06/11 01:21:05;;;;;;;;;;;;;;;15.23;62.67;97485.78;30002;982;1873;-62
2022/06/11 01:21:54;;;;;;;;;;;;;;;15.24;62.73;97493.69;30002;983;1876;-63
2022/06/11 01:22:43;;;;;;;;;;;;;;;15.22;62.29;97497.84;30002;983;1868;-61
2022/06/11 01:23:32;;;;;;;;;;;;;;;15.22;62.46;97500.56;30002;983;1872;-62
2022/06/11 01:24:23;;;;;;;;;;;;;;;15.20;62.47;97498.16;30002;983;1855;-63
2022/06/11 01:25:17;;;;;;;;;;;;;;;15.19;62.62;97495.72;30002;983;1864;-64
2022/06/11 01:26:07;;;;;;;;;;;;;;;15.18;62.55;97497.66;30002;983;1872;-61
2022/06/11 01:26:53;;;;;;;;;;;;;;;15.16;62.29;97494.41;30002;974;1891;-62
2022/06/11 01:27:42;;;;;;;;;;;;;;;15.15;62.28;97494.72;30002;982;1877;-62
2022/06/11 01:28:51;;;;;;;;;;;;;;;15.13;62.52;97496.94;30002;982;1855;-62
2022/06/11 01:29:40;;;;;;;;;;;;;;;15.13;62.56;97494.22;30002;983;1863;-63
2022/06/11 01:30:25;;;;;;;;;;;;;;;15.10;62.65;97498.38;30001;983;1877;-63
2022/06/11 01:31:01;;;;;;;;;;;;;;;15.09;62.41;97492.09;30001;983;1877;-64
2022/06/11 01:31:46;;;;;;;;;;;;;;;15.09;62.60;97491.28;30001;983;1877;-62
2022/06/11 01:32:40;;;;;;;;;;;;;;;15.08;62.38;97500.59;30001;975;1885;-62
2022/06/11 01:33:22;;;;;;;;;;;;;;;15.07;62.59;97493.50;30001;983;1872;-54
2022/06/11 01:34:16;;;;;;;;;;;;;;;15.07;62.54;97493.50;30001;982;1864;-63
2022/06/11 01:34:55;;;;;;;;;;;;;;;15.04;62.24;97494.94;30002;982;1851;-62
2022/06/11 01:35:35;;;;;;;;;;;;;;;15.03;62.67;97500.72;30001;982;1877;-62
2022/06/11 01:36:18;;;;;;;;;;;;;;;15.02;62.38;97502.63;30001;982;1877;-62
2022/06/11 01:36:51;;;;;;;;;;;;;;;15.02;62.75;97494.44;30001;983;1876;-61
2022/06/11 01:37:31;;;;;;;;;;;;;;;15.03;62.79;97497.97;30001;983;1876;-62
2022/06/11 01:38:06;;;;;;;;;;;;;;;15.03;62.45;97503.44;30001;983;1877;-61
2022/06/11 01:38:40;;;;;;;;;;;;;;;15.05;62.52;97498.47;30001;983;1876;-60
2022/06/11 01:39:25;;;;;;;;;;;;;;;15.06;62.31;97502.81;30001;976;1864;-65
2022/06/11 01:40:00;;;;;;;;;;;;;;;15.08;62.29;97500.59;30001;983;1855;-62
2022/06/11 01:40:35;;;;;;;;;;;;;;;15.11;62.09;97493.72;30002;982;1841;-53
2022/06/11 01:41:33;;;;;;;;;;;;;;;15.11;62.24;97491.78;30001;982;1877;-63
2022/06/11 01:42:32;;;;;;;;;;;;;;;15.08;62.30;97500.59;30001;964;1891;-64
2022/06/11 01:43:21;;;;;;;;;;;;;;;15.06;62.51;97494.63;30001;982;1873;-61
2022/06/11 01:43:59;;;;;;;;;;;;;;;15.05;62.45;97498.47;30001;983;1876;-62
2022/06/11 01:44:32;;;;;;;;;;;;;;;15.03;62.66;97500.72;30001;983;1863;-61
2022/06/11 01:45:12;;;;;;;;;;;;;;;15.02;62.44;97496.34;30001;983;1868;-63
2022/06/11 01:45:43;;;;;;;;;;;;;;;14.99;62.50;97502.44;30001;983;1876;-64
2022/06/11 01:46:19;;;;;;;;;;;;;;;14.98;62.85;97492.63;30001;983;1876;-64
2022/06/11 01:46:51;;;;;;;;;;;;;;;14.96;62.94;97494.84;30001;983;1877;-62
2022/06/11 01:47:22;;;;;;;;;;;;;;;14.95;63.21;97494.03;30001;983;1877;-62
2022/06/11 01:47:53;;;;;;;;;;;;;;;14.95;63.18;97496.75;30001;983;1877;-55
2022/06/11 01:48:26;;;;;;;;;;;;;;;14.92;63.32;97496.56;30001;982;1877;-62
2022/06/11 01:49:04;;;;;;;;;;;;;;;14.90;63.32;97493.34;30001;982;1877;-63
2022/06/11 01:49:38;;;;;;;;;;;;;;;14.91;63.10;97492.22;30001;982;1864;-63
2022/06/11 01:50:10;;;;;;;;;;;;;;;14.90;63.35;97491.41;30001;982;1868;-63
2022/06/11 01:50:44;;;;;;;;;;;;;;;14.88;63.19;97496.41;30001;982;1877;-64
2022/06/11 01:51:33;;;;;;;;;;;;;;;14.87;63.59;97494.78;30001;982;1877;-62
2022/06/11 01:52:28;;;;;;;;;;;;;;;14.90;63.37;97496.88;30001;983;1868;-62
2022/06/11 01:53:22;;;;;;;;;;;;;;;14.89;63.41;97491.75;30001;983;1872;-62
2022/06/11 01:54:18;;;;;;;;;;;;;;;14.87;63.17;97499.44;30001;983;1859;-62
2022/06/11 01:55:00;;;;;;;;;;;;;;;14.85;63.39;97493.47;30001;983;1864;-64
2022/06/11 01:55:47;;;;;;;;;;;;;;;14.84;63.38;97495.38;30001;983;1876;-62
2022/06/11 01:56:36;;;;;;;;;;;;;;;14.84;63.41;97494.56;30001;982;1863;-62
2022/06/11 01:57:19;;;;;;;;;;;;;;;14.80;63.45;97490.84;30001;982;1867;-64
2022/06/11 01:58:10;;;;;;;;;;;;;;;14.81;63.36;97492.44;30001;982;1877;-61
2022/06/11 01:58:48;;;;;;;;;;;;;;;14.80;63.46;97488.09;30001;982;1873;-63
2022/06/11 01:59:43;;;;;;;;;;;;;;;14.79;63.42;97492.75;30001;983;1863;-63
2022/06/11 02:00:22;;;;;;;;;;;;;;;14.78;63.65;97493.87;30001;983;1863;-62
2022/06/11 02:01:00;;;;;;;;;;;;;;;14.80;63.56;97488.09;30001;983;1877;-64
2022/06/11 02:01:52;;;;;;;;;;;;;;;14.79;63.30;97487.28;30001;983;1877;-62
2022/06/11 02:02:34;;;;;;;;;;;;;;;14.79;63.67;97491.94;30001;983;1864;-63
2022/06/11 02:03:11;;;;;;;;;;;;;;;14.77;63.95;97488.72;30001;983;1868;-63
2022/06/11 02:04:05;;;;;;;;;;;;;;;14.72;63.63;97487.69;30001;982;1877;-62
2022/06/11 02:04:58;;;;;;;;;;;;;;;14.73;63.64;97488.50;30001;982;1872;-64
2022/06/11 02:05:44;;;;;;;;;;;;;;;14.74;63.40;97488.19;30002;982;1771;-61
2022/06/11 02:06:21;;;;;;;;;;;;;;;14.76;63.74;97487.91;30001;982;1868;-62
2022/06/11 02:07:27;;;;;;;;;;;;;;;14.75;63.32;97487.09;30001;983;1876;-63
2022/06/11 02:08:13;;;;;;;;;;;;;;;14.71;63.52;97480.63;30001;983;1872;-63
2022/06/11 02:09:16;;;;;;;;;;;;;;;14.70;63.60;97489.12;30001;983;1876;-63
2022/06/11 02:10:06;;;;;;;;;;;;;;;14.67;63.76;97487.78;30001;983;1872;-63
2022/06/11 02:10:40;;;;;;;;;;;;;;;14.65;63.75;97492.75;30001;983;1859;-62
2022/06/11 02:11:32;;;;;;;;;;;;;;;14.66;64.25;97488.09;30001;982;1868;-54
2022/06/11 02:12:20;;;;;;;;;;;;;;;14.63;63.83;97489.53;30001;982;1877;-62
2022/06/11 02:13:08;;;;;;;;;;;;;;;14.62;64.21;97481.62;30001;982;1877;-63
2022/06/11 02:13:59;;;;;;;;;;;;;;;14.61;64.18;97483.53;30001;983;1876;-62
2022/06/11 02:14:36;;;;;;;;;;;;;;;14.59;64.01;97483.03;30001;983;1863;-64
2022/06/11 02:15:13;;;;;;;;;;;;;;;14.56;64.06;97480.91;30001;983;1868;-63
2022/06/11 02:15:53;;;;;;;;;;;;;;;14.54;64.37;97483.16;30001;983;1876;-61
2022/06/11 02:16:32;;;;;;;;;;;;;;;14.51;64.29;97486.50;30001;983;1876;-53
2022/06/11 02:17:11;;;;;;;;;;;;;;;14.50;64.10;97492.28;30001;983;1877;-62
2022/06/11 02:17:44;;;;;;;;;;;;;;;14.48;64.19;97487.13;30001;983;1877;-62
2022/06/11 02:18:17;;;;;;;;;;;;;;;14.46;64.54;97485.78;30001;982;1877;-62
2022/06/11 02:18:49;;;;;;;;;;;;;;;14.44;64.56;97490.75;30001;982;1877;-63
2022/06/11 02:19:26;;;;;;;;;;;;;;;14.42;64.88;97488.31;30001;982;1864;-62
2022/06/11 02:20:00;;;;;;;;;;;;;;;14.41;64.62;97481.25;30001;982;1869;-62
2022/06/11 02:20:59;;;;;;;;;;;;;;;14.39;64.86;97484.25;30001;982;1877;-62
2022/06/11 02:21:32;;;;;;;;;;;;;;;14.35;65.41;97488.69;30001;983;1859;-63
2022/06/11 02:22:07;;;;;;;;;;;;;;;14.33;65.08;97484.63;30001;983;1868;-63
2022/06/11 02:22:42;;;;;;;;;;;;;;;14.34;64.84;97480.78;30001;983;1876;-53
2022/06/11 02:23:16;;;;;;;;;;;;;;;14.35;64.88;97483.22;30001;983;1877;-63
2022/06/11 02:23:53;;;;;;;;;;;;;;;14.36;64.76;97484.84;30001;983;1877;-62
2022/06/11 02:24:35;;;;;;;;;;;;;;;14.38;64.66;97492.72;30001;983;1877;-62
2022/06/11 02:25:18;;;;;;;;;;;;;;;14.37;64.48;97485.66;30001;983;1864;-63
2022/06/11 02:25:54;;;;;;;;;;;;;;;14.37;64.73;97485.66;30001;982;1868;-61
2022/06/11 02:26:45;;;;;;;;;;;;;;;14.35;64.68;97487.88;30001;982;1864;-63
2022/06/11 02:27:22;;;;;;;;;;;;;;;14.34;64.36;97478.06;30001;982;1868;-62
2022/06/11 02:27:55;;;;;;;;;;;;;;;14.35;64.43;97490.59;30001;982;1864;-60
2022/06/11 02:28:28;;;;;;;;;;;;;;;14.35;64.62;97488.69;30001;983;1868;-61
2022/06/11 02:29:00;;;;;;;;;;;;;;;14.35;64.45;97488.69;30001;983;1876;-62
2022/06/11 02:29:32;;;;;;;;;;;;;;;14.38;64.19;97488.06;30001;983;1877;-63
2022/06/11 02:30:04;;;;;;;;;;;;;;;14.40;64.00;97493.25;30001;983;1876;-63
2022/06/11 02:30:36;;;;;;;;;;;;;;;14.40;63.96;97495.97;30001;983;1876;-62
2022/06/11 02:31:09;;;;;;;;;;;;;;;14.39;64.05;97494.34;30001;983;1877;-63
2022/06/11 02:31:44;;;;;;;;;;;;;;;14.38;64.18;97493.53;30001;983;1863;-61
2022/06/11 02:32:16;;;;;;;;;;;;;;;14.39;64.21;97494.34;30001;983;1868;-62
2022/06/11 02:32:47;;;;;;;;;;;;;;;14.38;64.10;97493.53;30001;983;1877;-64
2022/06/11 02:33:19;;;;;;;;;;;;;;;14.39;64.03;97499.81;30001;983;1877;-61
2022/06/11 02:33:50;;;;;;;;;;;;;;;14.43;63.80;97489.94;30001;982;1877;-62
2022/06/11 02:34:23;;;;;;;;;;;;;;;14.44;63.40;97490.75;30001;982;1864;-64
2022/06/11 02:34:58;;;;;;;;;;;;;;;14.43;63.39;97495.41;30001;982;1869;-63
2022/06/11 02:35:37;;;;;;;;;;;;;;;14.45;63.46;97495.91;30001;982;1864;-63
2022/06/11 02:36:17;;;;;;;;;;;;;;;14.45;63.47;97492.38;30001;983;1867;-53
2022/06/11 02:37:00;;;;;;;;;;;;;;;14.45;63.47;97493.19;30001;965;1889;-63
2022/06/11 02:37:33;;;;;;;;;;;;;;;14.45;63.95;97493.19;30001;983;1868;-54
2022/06/11 02:38:05;;;;;;;;;;;;;;;14.42;63.63;97488.31;30001;983;1863;-62
2022/06/11 02:38:37;;;;;;;;;;;;;;;14.42;63.44;97493.78;30001;983;1855;-63
2022/06/11 02:39:08;;;;;;;;;;;;;;;14.43;63.40;97492.66;30001;983;1877;-64
2022/06/11 02:39:41;;;;;;;;;;;;;;;14.45;63.07;97489.62;30001;983;1877;-63
2022/06/11 02:40:18;;;;;;;;;;;;;;;14.46;63.18;97489.34;30001;983;1877;-61
2022/06/11 02:40:53;;;;;;;;;;;;;;;14.45;63.44;97495.91;30001;983;1877;-63
2022/06/11 02:41:27;;;;;;;;;;;;;;;14.44;63.58;97488.00;30001;982;1864;-61
2022/06/11 02:42:00;;;;;;;;;;;;;;;14.43;63.46;97487.22;30001;982;1868;-63
2022/06/11 02:42:31;;;;;;;;;;;;;;;14.43;63.64;97492.66;30001;982;1877;-62
2022/06/11 02:43:02;;;;;;;;;;;;;;;14.43;63.57;97489.94;30001;982;1877;-62
2022/06/11 02:43:33;;;;;;;;;;;;;;;14.42;63.74;97488.31;30001;983;1876;-62
2022/06/11 02:44:04;;;;;;;;;;;;;;;14.41;63.64;97486.69;30001;983;1876;-61
2022/06/11 02:44:35;;;;;;;;;;;;;;;14.40;63.86;97487.78;30001;983;1877;-61
2022/06/11 02:45:10;;;;;;;;;;;;;;;14.39;63.73;97489.69;30001;987;1876;-60
2022/06/11 02:45:41;;;;;;;;;;;;;;;14.39;63.81;97491.63;30001;983;1877;-62
2022/06/11 02:47:03;;;;;;;;;;;;;;;14.39;63.87;97486.16;30001;983;1868;-61
2022/06/11 02:47:34;;;;;;;;;;;;;;;14.40;63.57;97482.31;30001;983;1877;-63
2022/06/11 02:48:05;;;;;;;;;;;;;;;14.40;63.93;97491.31;30001;982;1877;-54
2022/06/11 02:48:36;;;;;;;;;;;;;;;14.40;63.59;97483.13;30001;982;1877;-63
2022/06/11 02:49:08;;;;;;;;;;;;;;;14.42;63.26;97488.31;30001;982;1857;-62
2022/06/11 02:49:40;;;;;;;;;;;;;;;14.42;63.32;97488.31;30001;982;1877;-64
2022/06/11 02:50:16;;;;;;;;;;;;;;;14.41;63.25;97487.50;30001;982;1877;-62
2022/06/11 02:50:47;;;;;;;;;;;;;;;14.43;63.25;97481.75;30001;961;1885;-62
2022/06/11 02:51:20;;;;;;;;;;;;;;;14.44;63.55;97486.09;30001;983;1868;-61
2022/06/11 02:51:53;;;;;;;;;;;;;;;14.43;63.36;97489.94;30001;983;1877;-64
2022/06/11 02:52:24;;;;;;;;;;;;;;;14.44;63.41;97486.09;30001;983;1876;-63
2022/06/11 02:52:56;;;;;;;;;;;;;;;14.44;62.99;97486.09;30001;983;1877;-62
2022/06/11 02:53:26;;;;;;;;;;;;;;;14.46;63.10;97494.78;30001;983;1877;-63
2022/06/11 02:53:58;;;;;;;;;;;;;;;14.47;63.01;97484.69;30001;983;1864;-63
2022/06/11 02:54:29;;;;;;;;;;;;;;;14.47;62.97;97485.50;30001;983;1868;-62
2022/06/11 02:55:02;;;;;;;;;;;;;;;14.48;62.78;97486.31;30001;983;1877;-55
2022/06/11 02:55:34;;;;;;;;;;;;;;;14.50;62.78;97484.88;30001;982;1877;-54
2022/06/11 02:56:05;;;;;;;;;;;;;;;14.48;62.81;97489.84;30001;982;1877;-53
2022/06/11 02:56:37;;;;;;;;;;;;;;;14.47;62.82;97482.75;30001;982;1877;-63
2022/06/11 02:57:08;;;;;;;;;;;;;;;14.47;62.97;97480.03;30001;982;1877;-63
2022/06/11 02:57:39;;;;;;;;;;;;;;;14.48;63.08;97487.13;30001;982;1877;-62
2022/06/11 02:58:11;;;;;;;;;;;;;;;14.48;62.74;97475.38;30001;982;1877;-63
2022/06/11 02:58:42;;;;;;;;;;;;;;;14.48;63.12;97486.31;30001;983;1863;-62
2022/06/11 02:59:13;;;;;;;;;;;;;;;14.46;62.98;97486.59;30001;983;1854;-62
2022/06/11 02:59:45;;;;;;;;;;;;;;;14.47;63.05;97493.69;30001;983;1877;-63
2022/06/11 03:00:18;;;;;;;;;;;;;;;14.47;63.12;97484.69;30001;983;1877;-61
2022/06/11 03:00:48;;;;;;;;;;;;;;;14.44;63.26;97486.09;30001;983;1877;-62
2022/06/11 03:01:21;;;;;;;;;;;;;;;14.43;63.10;97487.22;30001;983;1877;-63
2022/06/11 03:01:52;;;;;;;;;;;;;;;14.41;63.48;97489.44;30001;982;1877;-62
2022/06/11 03:02:24;;;;;;;;;;;;;;;14.39;63.66;97483.44;30001;983;1864;-61
2022/06/11 03:02:55;;;;;;;;;;;;;;;14.39;63.27;97491.63;30001;982;1868;-62
2022/06/11 03:03:27;;;;;;;;;;;;;;;14.38;63.60;97492.72;30001;982;1877;-62
2022/06/11 03:03:58;;;;;;;;;;;;;;;14.37;63.51;97491.09;30001;982;1877;-62
2022/06/11 03:04:31;;;;;;;;;;;;;;;14.37;63.78;97488.38;30001;982;1877;-63
2022/06/11 03:05:02;;;;;;;;;;;;;;;14.37;63.44;97491.09;30001;982;1877;-54
2022/06/11 03:05:34;;;;;;;;;;;;;;;14.38;63.44;97492.72;30001;982;1864;-63
2022/06/11 03:06:05;;;;;;;;;;;;;;;14.36;63.42;97486.75;30001;983;1868;-62
2022/06/11 03:06:41;;;;;;;;;;;;;;;14.37;63.45;97491.91;30001;983;1876;-63
2022/06/11 03:07:12;;;;;;;;;;;;;;;14.38;63.51;97488.06;30001;983;1876;-63
2022/06/11 03:07:43;;;;;;;;;;;;;;;14.39;63.42;97488.88;30001;983;1877;-63
2022/06/11 03:08:14;;;;;;;;;;;;;;;14.39;63.36;97492.44;30001;983;1877;-61
2022/06/11 03:08:45;;;;;;;;;;;;;;;14.39;63.45;97491.63;30001;983;1877;-61
2022/06/11 03:09:20;;;;;;;;;;;;;;;14.39;63.29;97491.63;30001;983;1877;-64
2022/06/11 03:09:51;;;;;;;;;;;;;;;14.38;63.55;97493.53;30001;983;1877;-62
2022/06/11 03:10:24;;;;;;;;;;;;;;;14.38;63.20;97498.19;30001;982;1877;-53
2022/06/11 03:10:55;;;;;;;;;;;;;;;14.37;63.56;97485.66;30001;982;1864;-62
2022/06/11 03:11:27;;;;;;;;;;;;;;;14.36;63.31;97492.22;30001;982;1868;-62
2022/06/11 03:11:58;;;;;;;;;;;;;;;14.37;63.22;97493.84;30001;982;1877;-64
2022/06/11 03:12:30;;;;;;;;;;;;;;;14.37;63.33;97488.38;30001;982;1877;-53
2022/06/11 03:13:01;;;;;;;;;;;;;;;14.38;63.24;97492.72;30001;982;1877;-62
2022/06/11 03:13:32;;;;;;;;;;;;;;;14.36;63.45;97494.94;30001;982;1877;-62
2022/06/11 03:14:03;;;;;;;;;;;;;;;14.36;63.53;97489.50;30001;983;1876;-63
2022/06/11 03:14:34;;;;;;;;;;;;;;;14.34;63.19;97492.53;30001;983;1876;-61
2022/06/11 03:15:05;;;;;;;;;;;;;;;14.33;63.63;97492.81;30001;983;1876;-62
2022/06/11 03:15:36;;;;;;;;;;;;;;;14.30;64.27;97496.16;30001;983;1876;-62
2022/06/11 03:16:07;;;;;;;;;;;;;;;14.30;64.25;97498.88;30001;983;1864;-63
2022/06/11 03:16:38;;;;;;;;;;;;;;;14.28;63.98;97498.38;30001;983;1868;-62
2022/06/11 03:17:11;;;;;;;;;;;;;;;14.32;63.66;97493.94;30001;983;1864;-61
2022/06/11 03:17:43;;;;;;;;;;;;;;;14.32;63.57;97496.66;30001;983;1868;-62